^^
Station Historical Data
Daily Summary for August 17, 2017 Units:  Metric    English   Both
« Previous Day
Next Day »
Daily Weekly Monthly Yearly Custom
  High: Low: Average:
Temperature: 17.8 °C 1.8 °C 7.3 °C
Dew Point: 1.8 °C -7.8 °C -0.8 °C
Humidity: 86% 17% 63%
Wind Speed: 17.7km/h 0km/h 3.9km/h
Wind Gust: 29km/h - -
Wind- - ESE
Pressure: 1024.6 hPa 1020.5 hPa -
Precipitation: 0 mm    
Historical Graphs
 
 
Tabular Data for August 17, 2017
Time Temperature Dew Point Pressure Wind Wind Speed Wind Gust Humidity Rainfall Rate (Hourly) solar Conditions
00:01 6.9 °C 1.8 °C 1021.2 hPa SE 17.7 km/h 24.1 km/h 70% 0 mm 0.0 W/m2
00:16 6.6 °C 1.7 °C 1021.2 hPa SSE 4.7 km/h 17.7 km/h 71% 0 mm 0.0 W/m2
00:25 6.4 °C 1.5 °C 1021.2 hPa SSE 7.9 km/h 12.9 km/h 71% 0 mm 0.0 W/m2
00:30 6.3 °C 1.6 °C 1021.6 hPa SSE 7.9 km/h 11.3 km/h 72% 0 mm 0.0 W/m2
00:35 6.2 °C 1.5 °C 1021.6 hPa SSE 9.7 km/h 14.5 km/h 72% 0 mm 0.0 W/m2
00:41 6.2 °C 1.5 °C 1021.6 hPa SSE 13 km/h 13 km/h 72% 0 mm 0.0 W/m2
00:46 6.2 °C 1.5 °C 1021.6 hPa SSE 11.1 km/h 16.1 km/h 72% 0 mm 0.0 W/m2
00:56 6.1 °C 1.4 °C 1021.2 hPa SSE 11.1 km/h 12.9 km/h 72% 0 mm 0.0 W/m2
01:01 5.9 °C 1.4 °C 1021.2 hPa SSE 7.9 km/h 14.5 km/h 73% 0 mm 0.0 W/m2
01:06 5.8 °C 1.3 °C 1021.2 hPa SSE 9.7 km/h 14.5 km/h 73% 0 mm 0.0 W/m2
01:16 5.7 °C 1.2 °C 1021.2 hPa SSE 9.7 km/h 12.9 km/h 73% 0 mm 0.0 W/m2
01:21 5.6 °C 1.3 °C 1021.2 hPa SSE 9.7 km/h 11.3 km/h 74% 0 mm 0.0 W/m2
01:26 5.5 °C 1.2 °C 1021.2 hPa SSE 7.9 km/h 9.7 km/h 74% 0 mm 0.0 W/m2
01:31 5.4 °C 1.1 °C 1021.2 hPa SSE 6.4 km/h 9.7 km/h 74% 0 mm 0.0 W/m2
01:36 5.3 °C 1.2 °C 1021.2 hPa SSE 6.4 km/h 8 km/h 75% 0 mm 0.0 W/m2
01:41 5.2 °C 1.1 °C 1021.2 hPa SSE 6.4 km/h 9.7 km/h 75% 0 mm 0.0 W/m2
01:51 5 °C 1.1 °C 1021.2 hPa SSE 4.7 km/h 8 km/h 76% 0 mm 0.0 W/m2
02:01 4.7 °C 0.8 °C 1021.2 hPa SSE 6.4 km/h 9.7 km/h 76% 0 mm 0.0 W/m2
02:12 4.5 °C 0.8 °C 1021.2 hPa Calm     77% 0 mm 0.0 W/m2
02:22 4.3 °C 0.8 °C 1021.2 hPa Calm     78% 0 mm 0.0 W/m2
02:27 4.2 °C 0.9 °C 1021.2 hPa Calm     79% 0 mm 0.0 W/m2
02:32 4.1 °C 0.6 °C 1021.2 hPa Calm     78% 0 mm 0.0 W/m2
02:37 3.9 °C 0.4 °C 1021.2 hPa Calm     78% 0 mm 0.0 W/m2
02:43 3.7 °C 0.2 °C 1021.2 hPa Calm     78% 0 mm 0.0 W/m2
02:48 3.5 °C 0.4 °C 1021.2 hPa Calm     80% 0 mm 0.0 W/m2
02:53 3.5 °C 0.4 °C 1021.2 hPa Calm     80% 0 mm 0.0 W/m2
02:58 3.5 °C 0.5 °C 1021.2 hPa Calm     81% 0 mm 0.0 W/m2
03:03 3.6 °C 0.6 °C 1021.2 hPa Calm     81% 0 mm 0.0 W/m2
03:09 3.6 °C 0.6 °C 1021.2 hPa Calm     81% 0 mm 0.0 W/m2
03:24 2.9 °C 0 °C 1021.2 hPa Calm     81% 0 mm 0.0 W/m2
03:29 2.8 °C -0.1 °C 1021.2 hPa Calm     81% 0 mm 0.0 W/m2
03:35 2.6 °C -0.3 °C 1021.2 hPa Calm     81% 0 mm 0.0 W/m2
03:40 2.4 °C -0.4 °C 1021.2 hPa Calm     82% 0 mm 0.0 W/m2
03:45 2.3 °C -0.3 °C 1021.2 hPa Calm     83% 0 mm 0.0 W/m2
03:50 2.3 °C -0.3 °C 1021.2 hPa Calm     83% 0 mm 0.0 W/m2
03:56 2.2 °C -0.4 °C 1021.2 hPa Calm     83% 0 mm 0.0 W/m2
04:06 2.3 °C -0.1 °C 1021.2 hPa Calm     84% 0 mm 0.0 W/m2
04:16 2.3 °C -0.5 °C 1021.6 hPa Calm     82% 0 mm 0.0 W/m2
04:22 2.1 °C -0.5 °C 1021.6 hPa Calm     83% 0 mm 0.0 W/m2
04:27 1.9 °C -0.7 °C 1021.9 hPa Calm     83% 0 mm 0.0 W/m2
04:32 1.8 °C -0.6 °C 1021.9 hPa Calm     84% 0 mm 0.0 W/m2
04:37 1.8 °C -0.5 °C 1021.9 hPa Calm     85% 0 mm 0.0 W/m2
04:43 2.1 °C 0 °C 1021.9 hPa Calm     86% 0 mm 0.0 W/m2
04:48 2.2 °C -0.2 °C 1021.9 hPa Calm     84% 0 mm 0.0 W/m2
04:53 2.3 °C -0.1 °C 1021.9 hPa Calm     84% 0 mm 0.0 W/m2
04:58 2.3 °C -0.1 °C 1021.9 hPa Calm     84% 0 mm 0.0 W/m2
05:03 2.3 °C -0.1 °C 1021.9 hPa Calm     84% 0 mm 0.0 W/m2
05:08 2.3 °C -0.3 °C 1022.2 hPa SSE 6.4 km/h 6.4 km/h 83% 0 mm 0.0 W/m2
05:13 2.4 °C -0.2 °C 1021.9 hPa Calm     83% 0 mm 0.0 W/m2
05:18 2.4 °C -0.4 °C 1022.2 hPa Calm     82% 0 mm 0.0 W/m2
05:24 2.2 °C -0.6 °C 1022.2 hPa Calm     82% 0 mm 0.0 W/m2
05:29 2.4 °C -0.2 °C 1022.6 hPa Calm     83% 0 mm 0.0 W/m2
05:39 3 °C 0.2 °C 1022.6 hPa Calm     82% 0 mm 0.0 W/m2
05:44 3.4 °C 0.3 °C 1022.6 hPa Calm     80% 0 mm 0.0 W/m2
05:50 3.8 °C 0.1 °C 1022.6 hPa Calm     77% 0 mm 0.0 W/m2
05:55 3.8 °C 0 °C 1022.9 hPa Calm     76% 0 mm 0.0 W/m2
06:07 3.3 °C -0.5 °C 1022.9 hPa Calm     76% 0 mm 0.0 W/m2
06:16 3.5 °C -0.2 °C 1022.9 hPa Calm     77% 0 mm 0.0 W/m2
06:26 3.8 °C -0.2 °C 1023.2 hPa Calm     75% 0 mm 7.0 W/m2
06:31 3.8 °C -0.4 °C 1023.2 hPa Calm     74% 0 mm 11.0 W/m2
06:36 3.7 °C -0.3 °C 1023.2 hPa Calm     75% 0 mm 12.0 W/m2
06:41 3.8 °C -0.4 °C 1023.2 hPa Calm     74% 0 mm 14.0 W/m2
06:47 3.9 °C -0.3 °C 1023.2 hPa Calm     74% 0 mm 16.0 W/m2
06:52 4 °C -0.4 °C 1023.2 hPa Calm     73% 0 mm 18.0 W/m2
06:57 4.1 °C -0.3 °C 1023.2 hPa Calm     73% 0 mm 70.0 W/m2
07:03 4.2 °C -0.2 °C 1023.2 hPa Calm     73% 0 mm 88.0 W/m2
07:07 4.4 °C -0.2 °C 1023.2 hPa Calm     72% 0 mm 105.0 W/m2
07:16 4.7 °C -0.1 °C 1023.6 hPa Calm     71% 0 mm 125.0 W/m2
07:22 5.2 °C 0 °C 1023.6 hPa Calm     69% 0 mm 174.0 W/m2
07:37 5.9 °C 0.2 °C 1023.9 hPa Calm     67% 0 mm 230.0 W/m2
07:44 5.9 °C 0.2 °C 1023.9 hPa Calm     67% 0 mm 230.0 W/m2
07:52 6.3 °C 0.6 °C 1023.9 hPa East 11.1 km/h 11.3 km/h 67% 0 mm 274.0 W/m2
07:59 6.3 °C 0.6 °C 1023.9 hPa East 11.1 km/h 11.3 km/h 67% 0 mm 274.0 W/m2
08:08 6.7 °C 0.4 °C 1024.3 hPa Calm   14.5 km/h 64% 0 mm 320.0 W/m2
08:23 7.3 °C 0.5 °C 1024.3 hPa East 11.1 km/h 20.9 km/h 62% 0 mm 362.0 W/m2
08:43 8.1 °C 0.6 °C 1024.6 hPa East 17.7 km/h 24.1 km/h 59% 0 mm 422.0 W/m2
09:03 8.8 °C 0.7 °C 1024.6 hPa ENE 13 km/h 14.5 km/h 57% 0 mm 461.0 W/m2
09:18 9.2 °C 0.4 °C 1024.6 hPa ENE 7.9 km/h 14.5 km/h 54% 0 mm 499.0 W/m2
09:28 9.6 °C 0 °C 1024.6 hPa ENE 6.4 km/h 14.5 km/h 51% 0 mm 534.0 W/m2
09:38 9.8 °C -0.1 °C 1024.3 hPa NE 9.7 km/h 14.5 km/h 50% 0 mm 552.0 W/m2
09:53 10.5 °C -0.1 °C 1024.3 hPa NE 6.4 km/h 24.1 km/h 48% 0 mm 585.0 W/m2
09:59 10.5 °C -0.1 °C 1024.3 hPa NE 6.4 km/h 24.1 km/h 48% 0 mm 585.0 W/m2
10:13 11.3 °C -0.5 °C 1023.9 hPa ENE 14.3 km/h 19.3 km/h 44% 0 mm 615.0 W/m2
10:22 11.6 °C -0.2 °C 1023.9 hPa Calm   16.1 km/h 44% 0 mm 629.0 W/m2
10:28 12.1 °C -0.4 °C 1023.9 hPa ENE 14.3 km/h 29 km/h 42% 0 mm 645.0 W/m2
10:38 12.3 °C -0.6 °C 1023.9 hPa Calm   6.4 km/h 41% 0 mm 663.0 W/m2
10:54 12.8 °C -1.2 °C 1023.6 hPa Calm   16.1 km/h 38% 0 mm 675.0 W/m2
11:09 13.1 °C -2 °C 1023.6 hPa NE 4.7 km/h 16.1 km/h 35% 0 mm 687.0 W/m2
11:24 13.6 °C -2 °C 1023.2 hPa Calm   16.1 km/h 34% 0 mm 703.0 W/m2
11:39 14.1 °C -1.9 °C 1022.9 hPa NNE 6.4 km/h 12.9 km/h 33% 0 mm 705.0 W/m2
12:00 14.5 °C -2.4 °C 1022.9 hPa Calm     31% 0 mm 705.0 W/m2
12:14 15.1 °C -3.3 °C 1022.6 hPa NE 6.4 km/h 16.1 km/h 28% 0 mm 707.0 W/m2
12:25 15.7 °C -2.8 °C 1022.6 hPa Calm   14.5 km/h 28% 0 mm 701.0 W/m2
12:35 15.7 °C -3.3 °C 1022.2 hPa NNW 11.1 km/h 12.9 km/h 27% 0 mm 687.0 W/m2
12:41 15.7 °C -3.3 °C 1022.2 hPa NNW 11.1 km/h 12.9 km/h 27% 0 mm 687.0 W/m2
12:50 15.6 °C -3.3 °C 1022.2 hPa Calm   4.8 km/h 27% 0 mm 680.0 W/m2
13:13 16 °C -4 °C 1021.9 hPa Calm     25% 0 mm 659.0 W/m2
13:28 16.4 °C -6 °C 1021.6 hPa NE 6.4 km/h 19.3 km/h 21% 0 mm 643.0 W/m2
13:41 16.4 °C -6 °C 1021.2 hPa ENE 4.7 km/h 12.9 km/h 21% 0 mm 605.0 W/m2
13:48 16.4 °C -6 °C 1021.2 hPa ENE 4.7 km/h 12.9 km/h 21% 0 mm 605.0 W/m2
13:56 16.7 °C -5.7 °C 1021.2 hPa Calm   16.1 km/h 21% 0 mm 580.0 W/m2
14:11 17.2 °C -6 °C 1021.2 hPa ENE 4.7 km/h 20.9 km/h 20% 0 mm 543.0 W/m2
14:32 17.2 °C -6.6 °C 1021.2 hPa ENE 6.4 km/h 17.7 km/h 19% 0 mm 513.0 W/m2
14:42 16.9 °C -6.2 °C 1020.9 hPa ENE 16.3 km/h 17.7 km/h 20% 0 mm 475.0 W/m2
14:57 16.9 °C -6.2 °C 1020.9 hPa ENE 4.7 km/h 8 km/h 20% 0 mm 432.0 W/m2
15:12 17.3 °C -7.3 °C 1020.9 hPa Calm   6.4 km/h 18% 0 mm 396.0 W/m2
15:22 17.6 °C -7.8 °C 1020.5 hPa NE 14.3 km/h 17.7 km/h 17% 0 mm 364.0 W/m2
15:32 17.6 °C -7.8 °C 1020.5 hPa ENE 11.1 km/h 17.7 km/h 17% 0 mm 336.0 W/m2
15:37 17.7 °C -7.7 °C 1020.5 hPa ENE 4.7 km/h 17.7 km/h 17% 0 mm 318.0 W/m2
15:42 17.8 °C -7.6 °C 1020.5 hPa ENE 11.1 km/h 11.3 km/h 17% 0 mm 302.0 W/m2
Canyon Roadhouse, Fishriver Canyon, Namibia
Compliments of Weather Underground - 2.25 mb